createdAt,value
2018-08-18T00:00:01.167Z,14.07
2018-08-18T00:02:38.894Z,15.30
2018-08-18T00:05:12.812Z,17.83
2018-08-18T00:07:45.798Z,30.67
2018-08-18T00:10:25.253Z,22.67
2018-08-18T00:12:57.624Z,23.23
2018-08-18T00:15:29.815Z,29.43
2018-08-18T00:18:04.098Z,20.70
2018-08-18T00:20:36.626Z,22.90
2018-08-18T00:23:12.271Z,33.30
2018-08-18T00:25:54.960Z,38.90
2018-08-18T00:28:29.443Z,37.40
2018-08-18T00:31:02.435Z,33.00
2018-08-18T00:33:42.707Z,35.10
2018-08-18T00:36:16.115Z,30.73
2018-08-18T00:38:48.767Z,39.30
2018-08-18T00:41:21.097Z,33.40
2018-08-18T00:43:55.083Z,32.27
2018-08-18T00:46:29.378Z,33.27
2018-08-18T00:49:01.790Z,30.13
2018-08-18T00:51:36.707Z,29.27
2018-08-18T00:54:11.089Z,33.73
2018-08-18T00:56:44.482Z,29.73
2018-08-18T00:59:17.319Z,33.80
2018-08-18T01:01:49.490Z,28.60
2018-08-18T01:04:22.137Z,38.40
2018-08-18T01:06:54.520Z,32.47
2018-08-18T01:09:26.720Z,31.00
2018-08-18T01:11:59.613Z,29.73
2018-08-18T01:14:32.776Z,29.37
2018-08-18T01:17:05.025Z,23.33
2018-08-18T01:19:37.202Z,17.60
2018-08-18T01:22:12.081Z,18.87
2018-08-18T01:24:44.883Z,18.17
2018-08-18T01:27:18.710Z,26.37
2018-08-18T01:29:55.718Z,21.67
2018-08-18T01:32:28.044Z,25.80
2018-08-18T01:35:00.814Z,23.83
2018-08-18T01:37:34.346Z,30.83
2018-08-18T01:40:06.264Z,21.70
2018-08-18T01:42:39.790Z,27.00
2018-08-18T01:45:13.520Z,35.57
2018-08-18T01:47:45.697Z,28.20
2018-08-18T01:50:21.116Z,30.37
2018-08-18T01:52:53.128Z,28.07
2018-08-18T01:55:25.341Z,37.57
2018-08-18T01:57:57.467Z,31.10
2018-08-18T02:00:30.271Z,27.67
2018-08-18T02:03:03.264Z,37.17
2018-08-18T02:05:35.609Z,34.50
2018-08-18T02:08:08.113Z,37.07
2018-08-18T02:10:40.394Z,43.23
2018-08-18T02:13:13.040Z,33.77
2018-08-18T02:15:46.293Z,38.83
2018-08-18T02:18:18.416Z,25.27
2018-08-18T02:20:50.768Z,30.83
2018-08-18T02:23:22.876Z,30.83
2018-08-18T02:25:55.348Z,31.40
2018-08-18T02:28:32.235Z,31.10
2018-08-18T02:31:04.470Z,27.60
2018-08-18T02:33:36.686Z,26.03
2018-08-18T02:36:08.963Z,25.33
2018-08-18T02:38:45.609Z,61.37
2018-08-18T02:41:17.718Z,57.00
2018-08-18T02:48:58.991Z,26.47
2018-08-18T02:51:31.720Z,21.73
2018-08-18T02:54:04.275Z,40.43
2018-08-18T02:56:44.064Z,66.10
2018-08-18T02:59:16.360Z,57.87
2018-08-18T03:01:48.645Z,31.90
2018-08-18T03:04:20.722Z,46.27
2018-08-18T03:06:53.600Z,37.10
2018-08-18T03:09:25.731Z,35.50
2018-08-18T03:21:59.818Z,36.87
2018-08-18T03:24:31.998Z,34.73
2018-08-18T03:27:04.368Z,35.27
2018-08-18T03:29:44.708Z,31.57
2018-08-18T03:32:17.593Z,32.07
2018-08-18T03:34:50.338Z,25.73
2018-08-18T03:37:30.409Z,35.53
2018-08-18T03:40:02.854Z,24.80
2018-08-18T03:42:41.804Z,20.77
2018-08-18T03:45:14.021Z,26.30
2018-08-18T03:47:47.250Z,20.87
2018-08-18T03:50:19.591Z,26.53
2018-08-18T03:52:51.744Z,37.23
2018-08-18T03:55:35.708Z,31.10
2018-08-18T03:58:08.256Z,35.87
2018-08-18T04:00:41.154Z,29.50
2018-08-18T04:03:13.381Z,35.47
2018-08-18T04:05:45.983Z,24.03
2018-08-18T04:08:18.402Z,22.03
2018-08-18T04:10:50.644Z,24.80
2018-08-18T04:13:22.900Z,32.87
2018-08-18T04:15:54.931Z,32.20
2018-08-18T04:18:27.131Z,24.63
2018-08-18T04:20:59.470Z,30.03
2018-08-18T04:23:31.593Z,33.13
2018-08-18T04:26:03.713Z,24.07
2018-08-18T04:28:39.906Z,20.17
2018-08-18T04:31:12.724Z,19.30
2018-08-18T04:33:45.168Z,18.27
2018-08-18T04:36:17.593Z,13.43
2018-08-18T04:38:49.861Z,12.43
2018-08-18T04:41:22.271Z,10.53
2018-08-18T04:43:54.556Z,9.17
2018-08-18T04:46:26.838Z,9.90
2018-08-18T04:48:59.456Z,10.33
2018-08-18T04:51:31.757Z,12.20
2018-08-18T04:54:04.863Z,18.37
2018-08-18T04:56:37.738Z,13.27
2018-08-18T04:59:10.136Z,13.90
2018-08-18T05:01:43.526Z,13.63
2018-08-18T05:04:15.519Z,14.43
2018-08-18T05:06:49.010Z,20.20
2018-08-18T05:09:21.065Z,14.33
2018-08-18T05:11:53.358Z,15.83
2018-08-18T05:14:25.437Z,16.73
2018-08-18T05:16:57.569Z,23.30
2018-08-18T05:19:29.510Z,17.83
2018-08-18T05:22:01.749Z,15.20
2018-08-18T05:24:34.633Z,19.43
2018-08-18T05:27:11.205Z,18.10
2018-08-18T05:29:43.930Z,20.43
2018-08-18T05:32:16.097Z,29.37
2018-08-18T05:34:48.353Z,28.10
2018-08-18T05:37:20.757Z,23.60
2018-08-18T05:39:53.142Z,26.07
2018-08-18T05:42:25.537Z,30.23
2018-08-18T05:44:57.823Z,27.33
2018-08-18T05:47:29.888Z,25.57
2018-08-18T05:50:03.552Z,22.97
2018-08-18T05:52:35.777Z,20.93
2018-08-18T05:55:07.955Z,16.53
2018-08-18T05:57:40.885Z,17.20
2018-08-18T06:00:17.523Z,21.43
2018-08-18T06:02:54.061Z,16.80
2018-08-18T06:05:28.373Z,15.00
2018-08-18T06:08:01.779Z,18.03
2018-08-18T06:10:34.254Z,16.97
2018-08-18T06:13:24.015Z,17.53
2018-08-18T06:16:09.589Z,17.57
2018-08-18T06:18:42.619Z,16.10
2018-08-18T06:21:14.791Z,15.33
2018-08-18T06:23:47.843Z,15.43
2018-08-18T06:26:20.124Z,13.27
2018-08-18T06:28:52.454Z,13.67
2018-08-18T06:31:24.800Z,14.67
2018-08-18T06:33:57.080Z,13.87
2018-08-18T06:36:29.372Z,17.07
2018-08-18T06:39:01.611Z,19.33
2018-08-18T06:41:33.696Z,14.30
2018-08-18T06:44:06.566Z,13.80
2018-08-18T06:46:38.887Z,13.53
2018-08-18T06:49:11.130Z,10.30
2018-08-18T06:51:43.557Z,10.43
2018-08-18T06:54:15.704Z,10.43
2018-08-18T06:56:47.846Z,9.30
2018-08-18T06:59:20.706Z,10.03
2018-08-18T07:01:52.903Z,8.77
2018-08-18T07:04:28.608Z,7.20
2018-08-18T07:07:00.793Z,9.90
2018-08-18T07:09:32.973Z,9.37
2018-08-18T07:12:05.040Z,7.13
2018-08-18T07:14:37.457Z,8.80
2018-08-18T07:17:09.640Z,9.43
2018-08-18T07:19:41.714Z,6.27
2018-08-18T07:22:18.978Z,5.47
2018-08-18T07:24:51.199Z,6.10
2018-08-18T07:27:23.505Z,4.93
2018-08-18T07:29:55.737Z,4.60
2018-08-18T07:32:30.135Z,4.33
2018-08-18T07:35:02.290Z,5.00
2018-08-18T07:37:35.077Z,4.60
2018-08-18T07:40:08.701Z,4.47
2018-08-18T07:42:41.160Z,4.87
2018-08-18T07:45:13.570Z,4.43
2018-08-18T07:47:45.763Z,4.70
2018-08-18T07:50:18.098Z,8.60
2018-08-18T07:52:50.348Z,7.80
2018-08-18T07:55:22.420Z,6.93
2018-08-18T07:57:59.213Z,8.17
2018-08-18T08:00:33.726Z,9.13
2018-08-18T08:03:06.363Z,6.90
2018-08-18T08:05:38.588Z,8.07
2018-08-18T08:08:11.215Z,9.40
2018-08-18T08:10:43.494Z,10.47
2018-08-18T08:13:16.853Z,7.60
2018-08-18T08:15:48.889Z,8.27
2018-08-18T08:18:21.394Z,7.33
2018-08-18T08:20:53.865Z,7.77
2018-08-18T08:23:26.332Z,9.57
2018-08-18T08:25:58.732Z,8.07
2018-08-18T08:28:30.844Z,7.33
2018-08-18T08:31:02.858Z,6.57
2018-08-18T08:33:40.646Z,5.47
2018-08-18T08:36:16.371Z,5.17
2018-08-18T08:38:58.911Z,5.67
2018-08-18T08:41:33.136Z,5.83
2018-08-18T08:44:05.569Z,4.57
2018-08-18T08:46:38.608Z,5.80
2018-08-18T08:49:11.119Z,5.17
2018-08-18T08:51:43.586Z,5.47
2018-08-18T08:54:15.947Z,9.25
2018-08-18T08:56:48.013Z,5.63
2018-08-18T08:59:20.171Z,5.03
2018-08-18T09:01:52.221Z,6.33
2018-08-18T09:04:24.476Z,4.33
2018-08-18T09:06:56.993Z,8.10
2018-08-18T09:09:29.375Z,6.10
2018-08-18T09:12:01.527Z,4.90
2018-08-18T09:14:35.631Z,7.00
2018-08-18T09:17:07.757Z,6.83
2018-08-18T09:19:39.981Z,4.87
2018-08-18T09:22:12.275Z,4.63
2018-08-18T09:24:44.603Z,5.03
2018-08-18T09:27:16.562Z,4.70
2018-08-18T09:29:49.532Z,5.33
2018-08-18T09:32:21.812Z,8.60
2018-08-18T09:35:27.387Z,4.80
2018-08-18T09:38:02.456Z,4.75
2018-08-18T09:40:34.952Z,6.27
2018-08-18T09:43:12.612Z,7.67
2018-08-18T09:45:44.728Z,4.67
2018-08-18T09:48:16.841Z,5.80
2018-08-18T09:50:49.535Z,4.50
2018-08-18T09:53:22.287Z,4.83
2018-08-18T09:55:54.855Z,8.03
2018-08-18T09:58:26.888Z,8.13
2018-08-18T10:00:58.810Z,16.13
2018-08-18T10:03:30.968Z,22.63
2018-08-18T10:06:03.029Z,29.05
2018-08-18T10:08:35.070Z,26.43
2018-08-18T10:11:07.638Z,18.07
2018-08-18T10:13:39.813Z,12.97
2018-08-18T10:16:13.275Z,13.10
2018-08-18T10:18:50.908Z,12.70
2018-08-18T10:21:23.196Z,10.03
2018-08-18T10:23:55.166Z,10.20
2018-08-18T10:26:27.638Z,8.50
2018-08-18T10:29:15.354Z,9.47
2018-08-18T10:31:51.638Z,9.07
2018-08-18T10:34:24.895Z,9.07
2018-08-18T10:37:05.451Z,9.57
2018-08-18T10:39:39.017Z,8.03
2018-08-18T10:42:14.061Z,12.07
2018-08-18T10:44:51.773Z,10.57
2018-08-18T10:47:25.325Z,11.80
2018-08-18T10:50:06.728Z,12.90
2018-08-18T10:52:48.268Z,10.07
2018-08-18T10:55:20.668Z,12.13
2018-08-18T10:58:05.103Z,15.27
2018-08-18T11:00:37.968Z,11.07
2018-08-18T11:03:10.682Z,17.20
2018-08-18T11:05:42.957Z,10.60
2018-08-18T11:08:15.280Z,16.20
2018-08-18T11:10:47.645Z,20.80
2018-08-18T11:13:19.706Z,12.87
2018-08-18T11:15:51.963Z,20.63
2018-08-18T11:18:26.046Z,19.20
2018-08-18T11:20:58.166Z,25.40
2018-08-18T11:23:30.485Z,25.33
2018-08-18T11:26:03.061Z,27.03
2018-08-18T11:28:35.307Z,24.07
2018-08-18T11:31:07.675Z,25.57
2018-08-18T11:33:44.860Z,23.07
2018-08-18T11:36:17.363Z,24.73
2018-08-18T11:38:49.938Z,22.87
2018-08-18T11:41:22.540Z,15.93
2018-08-18T11:43:55.284Z,19.10
2018-08-18T11:46:27.859Z,16.83
2018-08-18T11:48:59.949Z,13.10
2018-08-18T11:51:36.555Z,13.77
2018-08-18T11:54:09.170Z,19.30
2018-08-18T11:56:45.692Z,31.37
2018-08-18T11:59:18.625Z,34.57
2018-08-18T12:01:53.707Z,33.00
2018-08-18T12:04:26.173Z,35.20
2018-08-18T12:07:01.291Z,29.17
2018-08-18T12:09:33.565Z,28.17
2018-08-18T12:12:06.974Z,28.87
2018-08-18T12:14:39.647Z,27.27
2018-08-18T12:17:12.655Z,30.53
2018-08-18T12:19:46.675Z,29.40
2018-08-18T12:22:18.791Z,28.90
2018-08-18T12:24:55.254Z,26.40
2018-08-18T12:27:27.462Z,25.03
2018-08-18T12:30:01.656Z,27.67
2018-08-18T12:32:34.267Z,26.17
2018-08-18T12:35:06.502Z,30.07
2018-08-18T12:37:38.893Z,22.80
2018-08-18T12:40:14.646Z,26.63
2018-08-18T12:42:47.573Z,45.77
2018-08-18T12:45:19.896Z,28.13
2018-08-18T12:48:03.932Z,23.20
2018-08-18T12:50:35.963Z,23.97
2018-08-18T12:53:08.531Z,23.00
2018-08-18T12:55:41.974Z,25.20
2018-08-18T12:58:15.490Z,27.73
2018-08-18T13:01:21.461Z,27.20
2018-08-18T13:03:53.805Z,18.43
2018-08-18T13:06:27.915Z,27.43
2018-08-18T13:09:00.108Z,29.13
2018-08-18T13:11:32.678Z,22.63
2018-08-18T13:14:06.759Z,20.27
2018-08-18T13:16:39.471Z,26.70
2018-08-18T13:19:12.073Z,15.83
2018-08-18T13:21:44.733Z,17.87
2018-08-18T13:24:17.336Z,18.40
2018-08-18T13:26:50.044Z,15.60
2018-08-18T13:29:23.409Z,12.13
2018-08-18T13:31:56.347Z,15.27
2018-08-18T13:34:36.469Z,11.90
2018-08-18T13:37:09.019Z,14.77
2018-08-18T13:39:43.008Z,10.40
2018-08-18T13:42:24.511Z,14.30
2018-08-18T13:44:57.254Z,11.80
2018-08-18T13:47:30.058Z,11.13
2018-08-18T13:50:10.148Z,9.50
2018-08-18T13:52:47.025Z,15.17
2018-08-18T13:55:20.112Z,12.70
2018-08-18T13:57:52.652Z,15.53
2018-08-18T14:00:24.911Z,14.67
2018-08-18T14:02:57.610Z,15.77
2018-08-18T14:05:32.817Z,12.73
2018-08-18T14:08:06.280Z,14.23
2018-08-18T14:10:38.457Z,21.03
2018-08-18T14:13:10.840Z,8.30
2018-08-18T14:15:48.064Z,15.03
2018-08-18T14:18:20.555Z,14.13
2018-08-18T14:21:06.385Z,12.93
2018-08-18T14:23:38.885Z,15.60
2018-08-18T14:26:11.361Z,11.07
2018-08-18T14:28:43.634Z,13.43
2018-08-18T14:31:15.570Z,16.37
2018-08-18T14:33:47.988Z,10.53
2018-08-18T14:36:20.633Z,8.83
2018-08-18T14:38:52.970Z,11.97
2018-08-18T14:41:55.154Z,6.43
2018-08-18T14:44:28.712Z,8.73
2018-08-18T14:47:01.145Z,7.97
2018-08-18T14:49:33.443Z,7.27
2018-08-18T14:52:06.374Z,10.73
2018-08-18T14:54:39.922Z,7.20
2018-08-18T14:57:12.161Z,5.73
2018-08-18T14:59:44.299Z,7.80
2018-08-18T15:02:16.386Z,7.30
2018-08-18T15:04:49.033Z,12.17
2018-08-18T15:07:22.486Z,10.83
2018-08-18T15:09:54.726Z,15.10
2018-08-18T15:12:26.929Z,7.53
2018-08-18T15:14:59.197Z,9.43
2018-08-18T15:17:31.344Z,6.15
2018-08-18T15:20:03.754Z,9.57
2018-08-18T15:22:37.782Z,8.43
2018-08-18T15:25:10.221Z,8.80
2018-08-18T15:27:42.540Z,18.27
2018-08-18T15:30:15.449Z,13.80
2018-08-18T15:32:47.335Z,17.77
2018-08-18T15:35:20.207Z,16.97
2018-08-18T15:37:52.457Z,13.03
2018-08-18T15:40:25.400Z,11.97
2018-08-18T15:42:58.435Z,25.60
2018-08-18T15:45:31.521Z,8.37
2018-08-18T15:48:05.640Z,11.93
2018-08-18T15:50:53.423Z,9.50
2018-08-18T15:53:34.257Z,8.07
2018-08-18T15:56:07.808Z,7.43
2018-08-18T15:58:40.074Z,13.33
2018-08-18T16:01:12.309Z,9.80
2018-08-18T16:03:44.305Z,7.15
2018-08-18T16:06:16.981Z,11.90
2018-08-18T16:08:49.214Z,14.77
2018-08-18T16:11:22.610Z,12.87
2018-08-18T16:13:54.925Z,9.47
2018-08-18T16:16:27.106Z,10.40
2018-08-18T16:19:04.448Z,7.03
2018-08-18T16:21:37.438Z,10.00
2018-08-18T16:24:10.295Z,5.47
2018-08-18T16:26:42.732Z,11.53
2018-08-18T16:36:48.191Z,19.75
2018-08-18T16:39:20.596Z,16.70
2018-08-18T16:46:56.979Z,9.60
2018-08-18T16:49:29.119Z,8.50
2018-08-18T16:57:06.693Z,12.80
2018-08-18T17:02:20.174Z,15.70
2018-08-18T17:04:52.453Z,10.10
2018-08-18T17:07:28.156Z,6.10
2018-08-18T17:12:32.989Z,6.70
2018-08-18T17:17:35.867Z,10.00
2018-08-18T17:20:09.761Z,10.20
2018-08-18T17:22:43.275Z,8.20
2018-08-18T17:35:18.403Z,9.35
2018-08-18T17:42:51.824Z,17.10
2018-08-18T17:45:27.090Z,18.57
2018-08-18T17:47:59.749Z,12.80
2018-08-18T17:50:32.217Z,11.33
2018-08-18T17:53:04.491Z,4.90
2018-08-18T17:55:36.712Z,8.75
2018-08-18T17:58:08.816Z,10.55
2018-08-18T18:00:41.208Z,12.05
2018-08-18T18:03:13.617Z,10.35
2018-08-18T18:05:46.334Z,12.28
2018-08-18T18:08:20.071Z,8.05
2018-08-18T18:10:52.681Z,19.75
2018-08-18T18:13:28.593Z,8.35
2018-08-18T18:16:02.401Z,18.80
2018-08-18T18:18:38.965Z,9.35
2018-08-18T18:21:11.228Z,10.45
2018-08-18T18:23:44.978Z,11.18
2018-08-18T18:26:18.738Z,16.87
2018-08-18T18:28:51.260Z,9.15
2018-08-18T18:31:24.918Z,13.28
2018-08-18T18:34:02.134Z,8.38
2018-08-18T18:36:35.989Z,8.33
2018-08-18T18:39:09.032Z,10.28
2018-08-18T18:41:42.825Z,6.03
2018-08-18T18:44:15.048Z,10.20
2018-08-18T18:46:47.735Z,12.30
2018-08-18T18:49:29.751Z,41.30
2018-08-18T18:52:02.297Z,15.58
2018-08-18T18:54:34.609Z,12.07
2018-08-18T18:57:08.792Z,12.35
2018-08-18T19:00:00.899Z,9.80
2018-08-18T19:02:40.391Z,12.45
2018-08-18T19:05:21.441Z,10.15
2018-08-18T19:07:59.764Z,13.50
2018-08-18T19:10:32.583Z,15.05
2018-08-18T19:13:04.898Z,12.35
2018-08-18T19:15:37.227Z,6.72
2018-08-18T19:18:11.554Z,15.25
2018-08-18T19:20:44.634Z,16.50
2018-08-18T19:23:17.986Z,6.12
2018-08-18T19:25:51.766Z,13.15
2018-08-18T19:28:25.219Z,17.63
2018-08-18T19:30:57.696Z,11.67
2018-08-18T19:33:30.236Z,14.37
2018-08-18T19:36:02.548Z,12.37
2018-08-18T19:38:35.156Z,18.02
2018-08-18T19:41:08.444Z,17.50
2018-08-18T19:43:41.151Z,7.92
2018-08-18T19:46:14.244Z,9.43
2018-08-18T19:48:47.604Z,14.07
2018-08-18T19:51:19.839Z,7.28
2018-08-18T19:53:52.836Z,9.78
2018-08-18T19:56:25.851Z,7.05
2018-08-18T19:58:58.013Z,6.30
2018-08-18T20:01:31.073Z,6.40
2018-08-18T20:04:18.549Z,12.75
2018-08-18T20:06:50.952Z,6.47
2018-08-18T20:09:23.700Z,10.08
2018-08-18T20:11:56.026Z,8.20
2018-08-18T20:14:28.075Z,10.98
2018-08-18T20:17:01.991Z,8.88
2018-08-18T20:19:34.287Z,7.50
2018-08-18T20:22:07.502Z,21.75
2018-08-18T20:24:39.775Z,8.35
2018-08-18T20:27:12.559Z,7.00
2018-08-18T20:29:45.833Z,11.08
2018-08-18T20:32:18.807Z,10.70
2018-08-18T20:34:51.073Z,9.58
2018-08-18T20:37:23.285Z,6.65
2018-08-18T20:39:55.684Z,10.48
2018-08-18T20:42:32.884Z,7.62
2018-08-18T20:45:05.176Z,8.60
2018-08-18T20:47:39.053Z,13.08
2018-08-18T20:50:12.692Z,8.30
2018-08-18T20:52:45.275Z,6.55
2018-08-18T20:55:17.715Z,4.03
2018-08-18T21:04:19.241Z,9.05
2018-08-18T21:06:51.452Z,7.10
2018-08-18T21:09:33.317Z,7.70
2018-08-18T21:12:05.688Z,12.35
2018-08-18T21:14:39.504Z,7.55
2018-08-18T21:17:11.718Z,10.10
2018-08-18T21:19:46.442Z,12.20
2018-08-18T21:22:19.562Z,8.83
2018-08-18T21:24:52.132Z,4.65
2018-08-18T21:27:24.197Z,9.13
2018-08-18T21:29:58.263Z,8.93
2018-08-18T21:32:30.430Z,8.33
2018-08-18T21:35:04.485Z,7.97
2018-08-18T21:37:36.744Z,6.08
2018-08-18T21:40:10.538Z,13.43
2018-08-18T21:42:42.940Z,9.05
2018-08-18T21:45:15.709Z,10.98
2018-08-18T21:47:48.056Z,11.97
2018-08-18T21:50:20.308Z,7.28
2018-08-18T21:52:52.368Z,6.50
2018-08-18T21:55:24.680Z,5.05
2018-08-18T21:58:00.442Z,3.77
2018-08-18T22:00:37.492Z,7.92
2018-08-18T22:03:10.585Z,6.45
2018-08-18T22:05:42.629Z,7.20
2018-08-18T22:08:15.192Z,9.33
2018-08-18T22:10:51.018Z,9.95
2018-08-18T22:13:23.375Z,4.17
2018-08-18T22:15:55.606Z,5.90
2018-08-18T22:18:27.856Z,5.17
2018-08-18T22:21:00.109Z,6.78
2018-08-18T22:23:32.437Z,14.68
2018-08-18T22:26:08.890Z,4.97
2018-08-18T22:28:41.233Z,6.92
2018-08-18T22:31:14.071Z,6.12
2018-08-18T22:33:46.198Z,5.47
2018-08-18T22:36:18.561Z,9.75
2018-08-18T22:38:50.813Z,51.05
2018-08-18T22:41:23.175Z,11.78
2018-08-18T22:43:55.976Z,9.25
2018-08-18T22:46:28.870Z,6.78
2018-08-18T22:49:01.171Z,8.70
2018-08-18T22:51:33.601Z,10.33
2018-08-18T22:54:05.958Z,22.67
2018-08-18T22:56:39.615Z,10.37
2018-08-18T22:59:11.559Z,8.10
2018-08-18T23:01:43.791Z,11.27
2018-08-18T23:04:29.187Z,7.07
2018-08-18T23:07:02.593Z,10.20
2018-08-18T23:09:34.625Z,6.10
2018-08-18T23:12:08.391Z,9.27
2018-08-18T23:19:43.807Z,9.50
2018-08-18T23:22:25.256Z,11.20
2018-08-18T23:27:31.999Z,11.25
2018-08-18T23:30:04.274Z,11.60
2018-08-18T23:35:07.303Z,9.40
2018-08-18T23:40:10.930Z,16.47
2018-08-18T23:42:43.371Z,12.40
2018-08-18T23:45:15.642Z,7.70
2018-08-18T23:48:07.871Z,15.67
2018-08-18T23:50:41.757Z,11.47
2018-08-18T23:53:17.209Z,8.80
2018-08-18T23:55:56.147Z,8.13
2018-08-18T23:58:28.723Z,12.80
